createdAt,value
2024-05-09T00:00:50.299Z,3.10
2024-05-09T00:03:20.865Z,3.00
2024-05-09T00:05:51.362Z,2.80
2024-05-09T00:08:22.630Z,2.70
2024-05-09T00:10:53.499Z,2.80
2024-05-09T00:13:24.000Z,2.60
2024-05-09T00:15:54.378Z,2.50
2024-05-09T00:18:25.001Z,2.30
2024-05-09T00:20:55.571Z,2.30
2024-05-09T00:23:26.215Z,2.90
2024-05-09T00:25:56.796Z,2.70
2024-05-09T00:28:27.271Z,2.50
2024-05-09T00:30:57.709Z,2.80
2024-05-09T00:33:28.553Z,2.80
2024-05-09T00:35:59.313Z,2.60
2024-05-09T00:38:30.005Z,2.70
2024-05-09T00:41:00.728Z,2.20
2024-05-09T00:43:32.558Z,2.50
2024-05-09T00:46:03.269Z,2.50
2024-05-09T00:48:34.879Z,2.50
2024-05-09T00:51:06.624Z,2.80
2024-05-09T00:53:37.607Z,2.60
2024-05-09T00:56:11.699Z,2.80
2024-05-09T00:58:42.603Z,3.20
2024-05-09T01:01:13.455Z,3.20
2024-05-09T01:03:45.260Z,3.20
2024-05-09T01:06:17.012Z,3.00
2024-05-09T01:08:47.583Z,3.40
2024-05-09T01:11:18.673Z,3.10
2024-05-09T01:13:49.351Z,2.50
2024-05-09T01:16:19.936Z,3.10
2024-05-09T01:18:50.609Z,3.10
2024-05-09T01:21:21.322Z,3.10
2024-05-09T01:23:51.806Z,3.10
2024-05-09T01:26:22.231Z,3.50
2024-05-09T01:28:53.108Z,2.70
2024-05-09T01:31:23.719Z,2.40
2024-05-09T01:36:23.226Z,2.90
2024-05-09T01:38:53.713Z,2.30
2024-05-09T01:41:24.281Z,2.30
2024-05-09T01:43:55.008Z,2.60
2024-05-09T01:46:25.519Z,3.20
2024-05-09T01:56:23.539Z,3.70
2024-05-09T01:58:54.159Z,3.10
2024-05-09T02:01:24.826Z,3.30
2024-05-09T02:03:55.480Z,2.90
2024-05-09T02:06:26.134Z,2.80
2024-05-09T02:08:56.559Z,2.70
2024-05-09T02:16:24.920Z,2.90
2024-05-09T02:23:53.247Z,2.70
2024-05-09T02:28:53.132Z,3.00
2024-05-09T02:33:52.776Z,3.10
2024-05-09T02:36:23.423Z,3.10
2024-05-09T02:38:53.864Z,2.60
2024-05-09T02:41:24.355Z,3.20
2024-05-09T02:43:54.896Z,3.70
2024-05-09T02:46:25.387Z,3.10
2024-05-09T02:48:55.866Z,3.00
2024-05-09T02:51:26.306Z,3.60
2024-05-09T02:56:25.664Z,3.20
2024-05-09T03:01:25.309Z,2.90
2024-05-09T03:03:56.037Z,2.60
2024-05-09T03:06:26.643Z,2.30
2024-05-09T03:08:57.052Z,2.80
2024-05-09T03:13:57.655Z,2.60
2024-05-09T03:16:28.343Z,3.10
2024-05-09T03:18:58.887Z,2.80
2024-05-09T03:21:29.379Z,3.50
2024-05-09T03:26:28.746Z,4.80
2024-05-09T03:28:59.315Z,2.90
2024-05-09T03:33:58.758Z,3.10
2024-05-09T03:36:29.427Z,2.60
2024-05-09T03:38:59.853Z,2.70
2024-05-09T03:43:59.460Z,2.40
2024-05-09T03:46:29.812Z,3.60
2024-05-09T03:51:29.414Z,2.80
2024-05-09T03:54:00.694Z,3.40
2024-05-09T03:56:31.275Z,4.10
2024-05-09T03:59:02.007Z,5.80
2024-05-09T04:01:32.567Z,6.80
2024-05-09T04:04:03.009Z,4.10
2024-05-09T04:06:33.463Z,4.00
2024-05-09T04:11:32.870Z,3.00
2024-05-09T04:14:03.487Z,4.20
2024-05-09T04:16:34.088Z,2.90
2024-05-09T04:19:04.660Z,2.30
2024-05-09T04:21:35.170Z,2.70
2024-05-09T04:26:34.501Z,3.30
2024-05-09T04:29:05.060Z,3.60
2024-05-09T04:31:39.547Z,3.00
2024-05-09T04:34:10.129Z,2.80
2024-05-09T04:36:43.977Z,3.70
2024-05-09T04:39:14.984Z,2.60
2024-05-09T04:41:45.430Z,3.40
2024-05-09T04:44:15.851Z,2.30
2024-05-09T04:46:47.658Z,4.10
2024-05-09T04:49:18.345Z,2.40
2024-05-09T04:51:49.057Z,3.20
2024-05-09T04:54:30.238Z,4.00
2024-05-09T04:57:07.041Z,3.80
2024-05-09T04:59:37.505Z,4.10
2024-05-09T05:02:08.353Z,3.00
2024-05-09T05:04:38.840Z,3.30
2024-05-09T05:07:09.321Z,3.10
2024-05-09T05:09:39.784Z,3.70
2024-05-09T05:12:31.376Z,2.60
2024-05-09T05:15:01.925Z,3.70
2024-05-09T05:17:32.635Z,3.30
2024-05-09T05:20:03.977Z,3.00
2024-05-09T05:22:35.226Z,3.30
2024-05-09T05:25:07.327Z,3.60
2024-05-09T05:27:38.332Z,4.10
2024-05-09T05:30:17.532Z,4.30
2024-05-09T05:32:51.959Z,4.10
2024-05-09T05:35:22.595Z,4.30
2024-05-09T05:37:53.033Z,3.80
2024-05-09T05:40:32.222Z,2.50
2024-05-09T05:43:07.271Z,2.70
2024-05-09T05:45:38.011Z,3.40
2024-05-09T05:48:09.951Z,3.20
2024-05-09T05:50:40.634Z,3.40
2024-05-09T05:53:11.470Z,3.70
2024-05-09T05:55:43.129Z,3.30
2024-05-09T05:58:14.486Z,3.50
2024-05-09T06:00:45.167Z,3.50
2024-05-09T06:03:15.771Z,3.20
2024-05-09T06:05:46.956Z,3.20
2024-05-09T06:08:17.747Z,3.10
2024-05-09T06:10:48.314Z,3.10
2024-05-09T06:13:20.370Z,3.70
2024-05-09T06:15:50.850Z,3.30
2024-05-09T06:18:21.795Z,3.00
2024-05-09T06:20:52.719Z,3.20
2024-05-09T06:23:23.383Z,3.30
2024-05-09T06:25:53.912Z,3.10
2024-05-09T06:28:24.407Z,2.50
2024-05-09T06:30:54.902Z,2.30
2024-05-09T06:33:25.741Z,3.20
2024-05-09T06:35:59.328Z,2.30
2024-05-09T06:38:29.882Z,2.00
2024-05-09T06:41:00.451Z,2.60
2024-05-09T06:43:30.933Z,2.60
2024-05-09T06:46:01.402Z,2.80
2024-05-09T06:48:31.971Z,2.60
2024-05-09T06:51:02.592Z,2.50
2024-05-09T06:53:33.380Z,2.40
2024-05-09T06:56:04.159Z,2.30
2024-05-09T06:58:34.739Z,2.00
2024-05-09T07:01:06.310Z,2.20
2024-05-09T07:03:37.064Z,2.10
2024-05-09T07:06:08.132Z,2.20
2024-05-09T07:08:38.888Z,2.30
2024-05-09T07:11:09.679Z,2.40
2024-05-09T07:13:40.438Z,2.20
2024-05-09T07:16:11.023Z,2.20
2024-05-09T07:18:41.722Z,1.90
2024-05-09T07:21:12.496Z,2.60
2024-05-09T07:23:45.143Z,2.20
2024-05-09T07:26:18.389Z,2.30
2024-05-09T07:28:48.989Z,2.20
2024-05-09T07:31:19.914Z,2.00
2024-05-09T07:33:50.522Z,2.70
2024-05-09T07:36:21.089Z,2.10
2024-05-09T07:38:51.575Z,2.40
2024-05-09T07:41:22.110Z,2.40
2024-05-09T07:43:52.617Z,1.90
2024-05-09T07:47:17.284Z,1.80
2024-05-09T07:50:55.695Z,1.50
2024-05-09T07:54:37.784Z,2.00
2024-05-09T07:57:08.662Z,1.60
2024-05-09T07:59:39.108Z,1.90
2024-05-09T08:02:09.744Z,1.90
2024-05-09T08:04:40.484Z,2.20
2024-05-09T08:07:11.184Z,2.10
2024-05-09T08:09:42.201Z,2.20
2024-05-09T08:12:16.039Z,2.00
2024-05-09T08:14:46.611Z,1.50
2024-05-09T08:17:17.168Z,1.80
2024-05-09T08:19:47.681Z,2.10
2024-05-09T08:22:18.286Z,1.90
2024-05-09T08:24:48.783Z,2.00
2024-05-09T08:27:19.274Z,1.70
2024-05-09T08:29:49.760Z,1.80
2024-05-09T08:32:20.621Z,1.80
2024-05-09T08:34:51.143Z,1.80
2024-05-09T08:37:24.680Z,1.60
2024-05-09T08:39:58.306Z,1.60
2024-05-09T08:42:30.203Z,1.70
2024-05-09T08:45:00.684Z,1.50
2024-05-09T08:47:33.315Z,4.00
2024-05-09T08:50:13.556Z,1.70
2024-05-09T08:52:47.370Z,1.70
2024-05-09T08:55:18.244Z,2.50
2024-05-09T08:57:49.873Z,2.00
2024-05-09T09:00:29.201Z,1.40
2024-05-09T09:03:06.288Z,1.70
2024-05-09T09:05:40.652Z,1.50
2024-05-09T09:08:11.791Z,1.80
2024-05-09T09:10:45.038Z,1.60
2024-05-09T09:13:15.956Z,1.80
2024-05-09T09:15:57.417Z,1.70
2024-05-09T09:18:29.292Z,1.70
2024-05-09T09:21:00.160Z,1.80
2024-05-09T09:23:30.868Z,1.40
2024-05-09T09:26:02.145Z,1.70
2024-05-09T09:28:37.229Z,2.30
2024-05-09T09:31:07.831Z,1.50
2024-05-09T09:33:44.578Z,1.50
2024-05-09T09:36:15.135Z,1.70
2024-05-09T09:38:47.301Z,2.10
2024-05-09T09:41:24.339Z,1.60
2024-05-09T09:43:58.582Z,2.40
2024-05-09T09:46:31.125Z,1.70
2024-05-09T09:49:01.906Z,1.60
2024-05-09T09:51:33.956Z,1.40
2024-05-09T09:54:07.221Z,1.30
2024-05-09T09:56:40.059Z,1.60
2024-05-09T09:59:13.852Z,1.40
2024-05-09T10:01:46.965Z,1.80
2024-05-09T10:04:19.581Z,1.00
2024-05-09T10:06:54.128Z,2.00
2024-05-09T10:09:28.114Z,2.20
2024-05-09T10:12:00.403Z,1.90
2024-05-09T10:14:33.343Z,1.60
2024-05-09T10:17:08.023Z,1.70
2024-05-09T10:19:38.649Z,1.50
2024-05-09T10:22:09.719Z,1.70
2024-05-09T10:24:53.606Z,1.50
2024-05-09T10:27:30.881Z,3.00
2024-05-09T10:30:06.896Z,1.70
2024-05-09T10:32:42.642Z,1.90
2024-05-09T10:35:14.964Z,1.50
2024-05-09T10:37:46.422Z,1.70
2024-05-09T10:40:26.125Z,1.90
2024-05-09T10:43:05.674Z,1.60
2024-05-09T10:45:39.006Z,1.70
2024-05-09T10:48:11.008Z,1.80
2024-05-09T10:50:43.647Z,1.90
2024-05-09T10:53:14.074Z,1.30
2024-05-09T10:55:44.655Z,1.30
2024-05-09T10:58:20.260Z,1.70
2024-05-09T11:00:51.749Z,1.10
2024-05-09T11:03:22.394Z,1.20
2024-05-09T11:05:54.098Z,1.40
2024-05-09T11:08:25.841Z,1.40
2024-05-09T11:10:58.318Z,1.50
2024-05-09T11:13:32.591Z,1.30
2024-05-09T11:16:03.808Z,2.10
2024-05-09T11:18:38.005Z,3.00
2024-05-09T11:21:14.399Z,2.00
2024-05-09T11:23:45.026Z,1.60
2024-05-09T11:26:15.786Z,2.00
2024-05-09T11:28:47.871Z,1.70
2024-05-09T11:31:19.086Z,1.60
2024-05-09T11:33:49.966Z,1.40
2024-05-09T11:36:20.660Z,1.50
2024-05-09T11:38:51.082Z,1.40
2024-05-09T11:41:21.685Z,1.70
2024-05-09T11:43:52.149Z,1.90
2024-05-09T11:46:22.672Z,2.10
2024-05-09T11:48:53.467Z,1.30
2024-05-09T11:51:24.113Z,1.70
2024-05-09T11:53:54.616Z,2.20
2024-05-09T11:56:25.127Z,1.40
2024-05-09T11:58:55.678Z,1.10
2024-05-09T12:01:27.936Z,1.40
2024-05-09T12:03:58.994Z,1.10
2024-05-09T12:06:30.364Z,1.60
2024-05-09T12:09:01.109Z,1.80
2024-05-09T12:11:31.675Z,1.40
2024-05-09T12:14:02.172Z,1.20
2024-05-09T12:16:32.850Z,1.20
2024-05-09T12:19:03.643Z,1.60
2024-05-09T12:21:34.266Z,1.30
2024-05-09T12:24:04.809Z,1.40
2024-05-09T12:26:35.328Z,1.50
2024-05-09T12:29:05.809Z,1.60
2024-05-09T12:31:36.574Z,1.50
2024-05-09T12:34:07.204Z,1.60
2024-05-09T12:36:37.960Z,1.80
2024-05-09T12:39:09.460Z,1.20
2024-05-09T12:41:39.872Z,2.40
2024-05-09T12:44:10.277Z,1.30
2024-05-09T12:46:40.687Z,1.30
2024-05-09T12:49:12.212Z,1.50
2024-05-09T12:51:43.813Z,2.10
2024-05-09T12:54:14.267Z,1.10
2024-05-09T12:56:44.800Z,1.60
2024-05-09T12:59:15.229Z,1.20
2024-05-09T13:01:45.702Z,1.80
2024-05-09T13:04:16.363Z,1.40
2024-05-09T13:06:46.988Z,1.30
2024-05-09T13:09:17.548Z,1.70
2024-05-09T13:11:48.133Z,1.60
2024-05-09T13:14:18.730Z,1.30
2024-05-09T13:16:49.372Z,1.40
2024-05-09T13:19:20.056Z,1.40
2024-05-09T13:21:50.596Z,2.20
2024-05-09T13:24:21.002Z,1.60
2024-05-09T13:26:51.599Z,1.30
2024-05-09T13:29:22.098Z,1.30
2024-05-09T13:31:52.633Z,2.20
2024-05-09T13:34:23.056Z,3.00
2024-05-09T13:36:53.629Z,1.50
2024-05-09T13:39:24.191Z,1.30
2024-05-09T13:41:54.641Z,1.20
2024-05-09T13:44:25.156Z,1.60
2024-05-09T13:46:55.715Z,1.30
2024-05-09T13:49:26.390Z,1.90
2024-05-09T13:51:56.938Z,2.40
2024-05-09T13:54:27.371Z,1.60
2024-05-09T13:57:00.413Z,1.30
2024-05-09T13:59:32.109Z,2.20
2024-05-09T14:02:02.686Z,1.40
2024-05-09T14:04:33.409Z,1.70
2024-05-09T14:07:04.209Z,1.70
2024-05-09T14:09:34.820Z,1.30
2024-05-09T14:12:06.577Z,1.40
2024-05-09T14:14:37.801Z,1.00
2024-05-09T14:17:08.695Z,1.50
2024-05-09T14:19:39.212Z,1.50
2024-05-09T14:22:10.054Z,1.70
2024-05-09T14:24:40.660Z,3.40
2024-05-09T14:27:11.158Z,1.50
2024-05-09T14:29:41.541Z,1.90
2024-05-09T14:32:12.373Z,1.10
2024-05-09T14:34:42.780Z,1.40
2024-05-09T14:37:13.356Z,1.10
2024-05-09T14:39:43.944Z,1.30
2024-05-09T14:42:15.152Z,1.30
2024-05-09T14:44:45.626Z,1.30
2024-05-09T14:47:16.847Z,0.90
2024-05-09T14:49:47.644Z,1.40
2024-05-09T14:52:18.203Z,1.50
2024-05-09T14:54:59.932Z,1.10
2024-05-09T14:57:31.599Z,1.50
2024-05-09T15:00:02.115Z,1.00
2024-05-09T15:02:33.815Z,1.20
2024-05-09T15:05:06.763Z,0.90
2024-05-09T15:07:37.283Z,1.50
2024-05-09T15:10:13.813Z,1.30
2024-05-09T15:12:51.684Z,1.10
2024-05-09T15:15:22.200Z,1.10
2024-05-09T15:17:53.344Z,1.40
2024-05-09T15:20:31.580Z,1.20
2024-05-09T15:23:07.543Z,1.50
2024-05-09T15:25:38.087Z,1.20
2024-05-09T15:28:09.675Z,1.20
2024-05-09T15:30:42.955Z,1.70
2024-05-09T15:33:16.345Z,0.90
2024-05-09T15:35:47.522Z,1.10
2024-05-09T15:38:18.646Z,1.00
2024-05-09T15:40:49.649Z,6.00
2024-05-09T15:43:20.334Z,2.10
2024-05-09T15:45:51.037Z,1.60
2024-05-09T15:48:21.672Z,1.50
2024-05-09T15:50:52.289Z,2.50
2024-05-09T15:53:22.824Z,1.60
2024-05-09T15:55:53.331Z,3.30
2024-05-09T15:58:24.263Z,3.10
2024-05-09T16:00:55.301Z,1.30
2024-05-09T16:03:26.167Z,1.10
2024-05-09T16:05:58.375Z,2.60
2024-05-09T16:08:29.171Z,1.40
2024-05-09T16:10:59.982Z,2.50
2024-05-09T16:13:30.677Z,1.50
2024-05-09T16:16:01.911Z,1.30
2024-05-09T16:18:32.982Z,1.70
2024-05-09T16:21:03.555Z,1.70
2024-05-09T16:23:34.515Z,2.70
2024-05-09T16:26:05.413Z,1.80
2024-05-09T16:28:36.589Z,5.00
2024-05-09T16:31:07.509Z,2.40
2024-05-09T16:33:40.361Z,1.60
2024-05-09T16:36:11.240Z,1.40
2024-05-09T16:38:43.235Z,1.60
2024-05-09T16:41:14.787Z,1.90
2024-05-09T16:43:45.406Z,1.90
2024-05-09T16:46:16.154Z,1.10
2024-05-09T16:48:47.185Z,1.80
2024-05-09T16:51:17.697Z,1.30
2024-05-09T16:53:48.135Z,1.10
2024-05-09T16:56:18.648Z,1.40
2024-05-09T16:58:49.271Z,1.70
2024-05-09T17:01:19.850Z,1.50
2024-05-09T17:03:50.592Z,1.40
2024-05-09T17:06:21.273Z,1.40
2024-05-09T17:08:52.261Z,1.80
2024-05-09T17:11:22.784Z,1.40
2024-05-09T17:13:53.323Z,1.20
2024-05-09T17:16:24.153Z,1.80
2024-05-09T17:18:54.815Z,1.70
2024-05-09T17:21:25.299Z,1.50
2024-05-09T17:23:55.708Z,1.90
2024-05-09T17:26:26.310Z,1.90
2024-05-09T17:28:56.757Z,1.90
2024-05-09T17:31:27.306Z,1.70
2024-05-09T17:33:59.291Z,1.50
2024-05-09T17:36:30.107Z,1.60
2024-05-09T17:39:00.756Z,1.60
2024-05-09T17:41:31.237Z,1.60
2024-05-09T17:44:01.756Z,1.70
2024-05-09T17:46:32.319Z,1.60
2024-05-09T17:49:02.984Z,1.30
2024-05-09T17:51:35.768Z,1.50
2024-05-09T17:54:06.929Z,1.30
2024-05-09T17:56:37.590Z,1.70
2024-05-09T17:59:10.763Z,1.90
2024-05-09T18:01:41.944Z,1.50
2024-05-09T18:04:12.603Z,1.90
2024-05-09T18:06:43.273Z,1.50
2024-05-09T18:09:13.861Z,1.80
2024-05-09T18:11:44.370Z,1.70
2024-05-09T18:14:14.968Z,1.70
2024-05-09T18:16:45.477Z,1.50
2024-05-09T18:19:16.035Z,1.80
2024-05-09T18:21:46.762Z,1.40
2024-05-09T18:24:17.289Z,1.60
2024-05-09T18:26:48.545Z,1.80
2024-05-09T18:29:22.108Z,2.10
2024-05-09T18:31:52.808Z,1.50
2024-05-09T18:34:23.381Z,1.60
2024-05-09T18:36:54.742Z,1.40
2024-05-09T18:39:25.298Z,2.10
2024-05-09T18:41:55.813Z,1.80
2024-05-09T18:44:26.944Z,2.70
2024-05-09T18:46:57.459Z,2.50
2024-05-09T18:49:28.182Z,2.10
2024-05-09T18:51:58.954Z,2.30
2024-05-09T18:54:29.458Z,2.60
2024-05-09T18:57:00.065Z,2.10
2024-05-09T18:59:30.557Z,2.20
2024-05-09T19:02:01.155Z,1.60
2024-05-09T19:04:31.702Z,1.30
2024-05-09T19:07:04.018Z,2.00
2024-05-09T19:09:35.186Z,1.70
2024-05-09T19:12:06.453Z,1.90
2024-05-09T19:14:36.880Z,1.70
2024-05-09T19:17:07.410Z,2.50
2024-05-09T19:19:38.169Z,2.10
2024-05-09T19:22:09.766Z,1.90
2024-05-09T19:24:40.330Z,2.10
2024-05-09T19:27:10.981Z,1.90
2024-05-09T19:29:41.496Z,1.90
2024-05-09T19:32:12.216Z,2.30
2024-05-09T19:34:42.744Z,2.70
2024-05-09T19:37:13.589Z,1.60
2024-05-09T19:39:44.172Z,1.40
2024-05-09T19:42:14.655Z,2.60
2024-05-09T19:44:45.079Z,1.80
2024-05-09T19:47:15.619Z,1.70
2024-05-09T19:49:46.193Z,1.90
2024-05-09T19:52:17.332Z,1.70
2024-05-09T19:54:49.746Z,4.80
2024-05-09T19:57:20.254Z,2.10
2024-05-09T19:59:50.780Z,2.50
2024-05-09T20:02:22.251Z,3.20
2024-05-09T20:04:53.152Z,2.30
2024-05-09T20:07:23.756Z,1.90
2024-05-09T20:09:54.521Z,1.80
2024-05-09T20:12:25.105Z,2.20
2024-05-09T20:14:55.619Z,1.80
2024-05-09T20:17:26.235Z,2.20
2024-05-09T20:19:56.836Z,1.90
2024-05-09T20:22:28.585Z,1.50
2024-05-09T20:24:59.127Z,2.30
2024-05-09T20:27:30.196Z,2.20
2024-05-09T20:30:00.631Z,3.20
2024-05-09T20:32:31.286Z,2.90
2024-05-09T20:35:01.725Z,2.10
2024-05-09T20:37:32.213Z,2.40
2024-05-09T20:40:03.727Z,1.90
2024-05-09T20:42:34.323Z,1.80
2024-05-09T20:45:05.266Z,2.50
2024-05-09T20:47:35.804Z,2.40
2024-05-09T20:50:13.767Z,1.80
2024-05-09T20:52:51.027Z,1.50
2024-05-09T20:55:21.677Z,1.50
2024-05-09T20:57:52.196Z,2.20
2024-05-09T21:00:29.944Z,2.30
2024-05-09T21:03:08.736Z,2.60
2024-05-09T21:05:39.469Z,2.90
2024-05-09T21:08:10.828Z,2.20
2024-05-09T21:10:41.445Z,2.50
2024-05-09T21:13:12.080Z,2.20
2024-05-09T21:15:42.752Z,2.80
2024-05-09T21:18:13.584Z,2.70
2024-05-09T21:20:44.133Z,2.80
2024-05-09T21:23:14.680Z,3.80
2024-05-09T21:25:45.190Z,4.10
2024-05-09T21:28:15.598Z,4.50
2024-05-09T21:30:46.119Z,4.90
2024-05-09T21:33:16.919Z,3.60
2024-05-09T21:35:47.459Z,3.30
2024-05-09T21:38:18.419Z,5.90
2024-05-09T21:40:48.989Z,4.80
2024-05-09T21:43:19.678Z,2.50
2024-05-09T21:45:50.445Z,3.20
2024-05-09T21:48:20.913Z,2.70
2024-05-09T21:50:51.490Z,2.50
2024-05-09T21:53:21.949Z,3.10
2024-05-09T21:55:52.358Z,2.80
2024-05-09T21:58:23.502Z,2.30
2024-05-09T22:00:54.111Z,2.80
2024-05-09T22:03:24.728Z,2.10
2024-05-09T22:05:55.310Z,2.40
2024-05-09T22:08:25.755Z,2.30
2024-05-09T22:10:56.925Z,2.10
2024-05-09T22:13:28.744Z,3.20
2024-05-09T22:15:59.182Z,2.60
2024-05-09T22:18:29.709Z,2.30
2024-05-09T22:21:00.158Z,2.80
2024-05-09T22:23:30.594Z,3.60
2024-05-09T22:26:01.022Z,5.20
2024-05-09T22:28:31.413Z,4.10
2024-05-09T22:31:01.912Z,2.80
2024-05-09T22:33:32.633Z,2.70
2024-05-09T22:36:03.143Z,2.30
2024-05-09T22:38:33.665Z,2.90
2024-05-09T22:41:06.348Z,2.20
2024-05-09T22:43:36.875Z,2.30
2024-05-09T22:46:07.577Z,2.10
2024-05-09T22:48:38.438Z,2.40
2024-05-09T22:51:09.353Z,2.30
2024-05-09T22:53:39.773Z,2.60
2024-05-09T22:56:11.731Z,2.60
2024-05-09T22:58:42.292Z,3.00
2024-05-09T23:01:17.975Z,2.90
2024-05-09T23:03:49.351Z,2.80
2024-05-09T23:06:19.937Z,2.70
2024-05-09T23:08:50.476Z,2.30
2024-05-09T23:11:21.085Z,2.70
2024-05-09T23:13:51.626Z,2.10
2024-05-09T23:16:22.135Z,2.50
2024-05-09T23:18:52.678Z,2.20
2024-05-09T23:21:23.261Z,2.80
2024-05-09T23:23:53.672Z,2.20
2024-05-09T23:26:24.086Z,2.40
2024-05-09T23:28:54.533Z,1.90
2024-05-09T23:31:25.146Z,2.30
2024-05-09T23:33:55.942Z,2.40
2024-05-09T23:36:29.702Z,2.70
2024-05-09T23:39:00.299Z,3.10
2024-05-09T23:41:30.865Z,9.10
2024-05-09T23:44:01.295Z,3.50
2024-05-09T23:46:31.710Z,3.20
2024-05-09T23:49:02.455Z,2.90
2024-05-09T23:51:33.089Z,2.70
2024-05-09T23:54:03.657Z,2.40
2024-05-09T23:56:34.615Z,2.60
2024-05-09T23:59:05.155Z,2.90
